Time;durP1;ratioP1;P1;durP2;ratioP2;P2;SDS_P1;SDS_P2;PMS_P1;PMS_P2;Temp;Humidity;BMP_temperature;BMP_pressure;BME280_temperature;BME280_humidity;BME280_pressure;Samples;Min_cycle;Max_cycle;Signal;HPM_P1;HPM_P2
2023/10/22 00:01:05;;;;;;;16.58;3.80;;;;;;;;;;4992009;28;20038;-68
2023/10/22 00:03:31;;;;;;;19.60;4.70;;;;;;;;;;4991942;28;20034;-71
2023/10/22 00:05:56;;;;;;;13.55;4.03;;;;;;;;;;4991784;28;20038;-65
2023/10/22 00:08:22;;;;;;;26.50;4.32;;;;;;;;;;4991895;28;20037;-65
2023/10/22 00:10:47;;;;;;;11.60;3.45;;;;;;;;;;4991764;28;20526;-64
2023/10/22 00:13:13;;;;;;;14.68;4.00;;;;;;;;;;4991906;28;20771;-65
2023/10/22 00:15:39;;;;;;;9.35;3.78;;;;;;;;;;4991844;28;20027;-66
2023/10/22 00:18:04;;;;;;;9.35;3.53;;;;;;;;;;4991748;28;20027;-66
2023/10/22 00:20:31;;;;;;;12.65;4.25;;;;;;;;;;4991697;28;20555;-66
2023/10/22 00:22:56;;;;;;;12.23;3.83;;;;;;;;;;4991667;28;20033;-66
2023/10/22 00:25:22;;;;;;;9.65;3.22;;;;;;;;;;4991679;28;20026;-66
2023/10/22 00:27:47;;;;;;;9.95;3.92;;;;;;;;;;4991712;28;20382;-66
2023/10/22 00:30:13;;;;;;;11.75;3.90;;;;;;;;;;4991574;28;20502;-67
2023/10/22 00:32:38;;;;;;;10.15;3.33;;;;;;;;;;4992438;28;20041;-67
2023/10/22 00:35:04;;;;;;;9.85;3.67;;;;;;;;;;4991864;28;20395;-68
2023/10/22 00:37:29;;;;;;;7.47;3.33;;;;;;;;;;4992052;28;20113;-67
2023/10/22 00:39:55;;;;;;;8.38;3.10;;;;;;;;;;4991768;28;20030;-67
2023/10/22 00:42:20;;;;;;;10.45;3.17;;;;;;;;;;4991663;28;20054;-67
2023/10/22 00:44:46;;;;;;;12.13;3.53;;;;;;;;;;4991814;28;20034;-69
2023/10/22 00:47:15;;;;;;;8.55;3.40;;;;;;;;;;4992111;28;20059;-67
2023/10/22 00:49:42;;;;;;;8.30;3.45;;;;;;;;;;4991652;28;20050;-66
2023/10/22 00:52:08;;;;;;;7.32;3.58;;;;;;;;;;4991841;28;20033;-67
2023/10/22 00:54:34;;;;;;;9.20;3.60;;;;;;;;;;4991529;28;20031;-67
2023/10/22 00:57:00;;;;;;;10.13;3.40;;;;;;;;;;4992075;28;20106;-67
2023/10/22 00:59:26;;;;;;;10.75;3.47;;;;;;;;;;4992967;28;20026;-68
2023/10/22 01:01:52;;;;;;;12.98;3.28;;;;;;;;;;4994121;28;20030;-67
2023/10/22 01:04:18;;;;;;;11.60;3.33;;;;;;;;;;4991758;28;20387;-67
2023/10/22 01:06:44;;;;;;;10.35;3.63;;;;;;;;;;4994561;28;20028;-71
2023/10/22 01:09:11;;;;;;;9.25;3.72;;;;;;;;;;4997640;28;20038;-67
2023/10/22 01:11:38;;;;;;;6.53;2.95;;;;;;;;;;4997205;28;20458;-67
2023/10/22 01:14:04;;;;;;;8.57;3.80;;;;;;;;;;4996944;28;20113;-67
2023/10/22 01:16:30;;;;;;;7.35;3.17;;;;;;;;;;4997510;28;20026;-67
2023/10/22 01:18:55;;;;;;;6.78;3.30;;;;;;;;;;4997314;28;20423;-67
2023/10/22 01:21:24;;;;;;;7.25;2.97;;;;;;;;;;4996901;28;20034;-75
2023/10/22 01:23:50;;;;;;;10.45;3.38;;;;;;;;;;4996276;28;20061;-68
2023/10/22 01:26:15;;;;;;;8.00;3.35;;;;;;;;;;4996550;28;20472;-67
2023/10/22 01:28:41;;;;;;;5.38;2.85;;;;;;;;;;4998211;28;20494;-73
2023/10/22 01:31:10;;;;;;;8.93;3.92;;;;;;;;;;4999759;28;20035;-70
2023/10/22 01:33:36;;;;;;;6.57;3.13;;;;;;;;;;5000740;28;20060;-70
2023/10/22 01:36:02;;;;;;;6.28;3.17;;;;;;;;;;4999911;28;20050;-73
2023/10/22 01:38:27;;;;;;;8.25;2.88;;;;;;;;;;4998375;28;20019;-67
2023/10/22 01:40:53;;;;;;;4.60;2.70;;;;;;;;;;4999665;28;20029;-67
2023/10/22 01:43:18;;;;;;;10.38;3.00;;;;;;;;;;4998120;28;20165;-67
2023/10/22 01:45:44;;;;;;;9.23;3.22;;;;;;;;;;4998426;28;20070;-73
2023/10/22 01:48:10;;;;;;;7.10;3.00;;;;;;;;;;4999684;28;20542;-68
2023/10/22 01:50:36;;;;;;;5.78;2.92;;;;;;;;;;4999231;28;20110;-67
2023/10/22 01:53:01;;;;;;;6.60;3.22;;;;;;;;;;5015030;28;20022;-67
2023/10/22 01:55:27;;;;;;;8.13;3.50;;;;;;;;;;5018951;28;20117;-66
2023/10/22 01:57:52;;;;;;;6.38;3.15;;;;;;;;;;5018367;28;20380;-70
2023/10/22 02:00:18;;;;;;;7.30;3.63;;;;;;;;;;5019540;28;20032;-66
2023/10/22 02:02:44;;;;;;;5.80;3.33;;;;;;;;;;5016768;28;20022;-67
2023/10/22 02:05:09;;;;;;;3.75;2.90;;;;;;;;;;5017349;28;20490;-65
2023/10/22 02:07:37;;;;;;;7.05;3.13;;;;;;;;;;5019623;28;20113;-72
2023/10/22 02:10:03;;;;;;;9.40;3.65;;;;;;;;;;5017153;28;20026;-65
2023/10/22 02:12:29;;;;;;;6.30;3.40;;;;;;;;;;5017734;28;20533;-65
2023/10/22 02:14:55;;;;;;;6.38;3.50;;;;;;;;;;5017518;28;20025;-66
2023/10/22 02:17:21;;;;;;;6.80;2.88;;;;;;;;;;5017796;28;20026;-67
2023/10/22 02:19:46;;;;;;;5.45;3.08;;;;;;;;;;5016824;28;20018;-68
2023/10/22 02:22:12;;;;;;;6.43;2.97;;;;;;;;;;5019119;28;20026;-75
2023/10/22 02:24:39;;;;;;;5.65;3.03;;;;;;;;;;5016122;28;20026;-67
2023/10/22 02:27:05;;;;;;;4.75;3.00;;;;;;;;;;5016490;28;20051;-67
2023/10/22 02:29:30;;;;;;;4.07;3.00;;;;;;;;;;5015652;28;20030;-66
2023/10/22 02:31:56;;;;;;;5.32;2.90;;;;;;;;;;5007582;28;20049;-67
2023/10/22 02:34:22;;;;;;;4.65;2.80;;;;;;;;;;5001791;28;20022;-66
2023/10/22 02:36:47;;;;;;;7.90;3.17;;;;;;;;;;4994894;28;20545;-66
2023/10/22 08:00:15;;;;;;;2.05;1.52;;;;;;;;;;5369647;23;20406;-70
2023/10/22 08:02:40;;;;;;;2.72;1.55;;;;;;;;;;4974016;28;20117;-73
2023/10/22 08:05:06;;;;;;;2.10;1.52;;;;;;;;;;4973933;28;20031;-70
2023/10/22 08:07:33;;;;;;;3.30;1.73;;;;;;;;;;4974082;28;20034;-73
2023/10/22 08:09:58;;;;;;;1.90;1.60;;;;;;;;;;4972547;28;20034;-70
2023/10/22 08:12:23;;;;;;;2.45;1.55;;;;;;;;;;4973898;28;20074;-72
2023/10/22 08:14:50;;;;;;;2.47;1.60;;;;;;;;;;4973838;28;20046;-70
2023/10/22 08:17:15;;;;;;;1.88;1.73;;;;;;;;;;4973380;28;20031;-72
2023/10/22 08:19:41;;;;;;;2.65;1.80;;;;;;;;;;4973649;28;20369;-70
2023/10/22 08:22:06;;;;;;;1.67;1.50;;;;;;;;;;4973780;28;20549;-71
2023/10/22 08:24:32;;;;;;;2.63;1.80;;;;;;;;;;4973656;28;20030;-73
2023/10/22 08:27:01;;;;;;;1.70;1.50;;;;;;;;;;4973879;28;20030;-70
2023/10/22 08:29:27;;;;;;;1.92;1.50;;;;;;;;;;4973605;28;20030;-70
2023/10/22 08:31:52;;;;;;;2.10;1.65;;;;;;;;;;4973614;28;20035;-74
2023/10/22 08:34:19;;;;;;;1.60;1.50;;;;;;;;;;4973833;28;20097;-71
2023/10/22 08:36:44;;;;;;;2.08;1.48;;;;;;;;;;4973495;28;20027;-71
2023/10/22 08:39:10;;;;;;;1.60;1.50;;;;;;;;;;4973849;28;20037;-73
2023/10/22 08:41:46;;;;;;;1.75;1.60;;;;;;;;;;4973533;28;20027;-73
2023/10/22 08:44:14;;;;;;;3.63;1.73;;;;;;;;;;4973536;28;20102;-72
2023/10/22 08:46:40;;;;;;;2.03;1.50;;;;;;;;;;4973420;28;20051;-72
2023/10/22 08:49:06;;;;;;;3.10;1.38;;;;;;;;;;4973425;28;20451;-73
2023/10/22 08:51:32;;;;;;;1.77;1.58;;;;;;;;;;4973365;28;20027;-73
2023/10/22 08:53:57;;;;;;;3.47;1.90;;;;;;;;;;4973406;28;20078;-70
2023/10/22 08:56:23;;;;;;;1.63;1.30;;;;;;;;;;4973399;28;20023;-70
2023/10/22 08:58:49;;;;;;;2.30;1.55;;;;;;;;;;4973202;28;20451;-71
2023/10/22 09:01:17;;;;;;;3.92;1.60;;;;;;;;;;4973361;28;20026;-70
2023/10/22 09:03:43;;;;;;;2.88;1.60;;;;;;;;;;4973239;28;20019;-71
2023/10/22 09:06:08;;;;;;;2.13;1.52;;;;;;;;;;4973143;28;20094;-73
2023/10/22 09:08:45;;;;;;;1.40;1.30;;;;;;;;;;4973306;28;20078;-74
2023/10/22 09:11:12;;;;;;;2.35;1.70;;;;;;;;;;4973278;28;20479;-69
2023/10/22 09:13:38;;;;;;;2.40;1.60;;;;;;;;;;4973519;28;20034;-67
2023/10/22 09:16:04;;;;;;;1.75;1.50;;;;;;;;;;4973244;28;20035;-67
2023/10/22 09:18:29;;;;;;;1.73;1.45;;;;;;;;;;4973249;28;20027;-67
2023/10/22 09:21:06;;;;;;;3.10;1.40;;;;;;;;;;4973212;28;20102;-67
2023/10/22 09:23:31;;;;;;;1.92;1.60;;;;;;;;;;4973080;28;20027;-68
2023/10/22 09:25:58;;;;;;;1.83;1.70;;;;;;;;;;4973200;28;20031;-67
2023/10/22 09:28:26;;;;;;;2.53;1.80;;;;;;;;;;4974247;28;20035;-68
2023/10/22 09:31:03;;;;;;;1.67;1.58;;;;;;;;;;4976965;28;20502;-69
2023/10/22 09:33:33;;;;;;;1.85;1.40;;;;;;;;;;4977096;28;20022;-71
2023/10/22 09:36:02;;;;;;;1.77;1.65;;;;;;;;;;4977013;28;20026;-67
2023/10/22 09:38:43;;;;;;;2.28;1.58;;;;;;;;;;4974641;28;20147;-69
2023/10/22 09:41:27;;;;;;;1.70;1.60;;;;;;;;;;4993423;28;20391;-68
2023/10/22 09:43:54;;;;;;;2.83;1.60;;;;;;;;;;4991547;28;20018;-68
2023/10/22 09:46:23;;;;;;;1.45;1.35;;;;;;;;;;4993450;28;20494;-68
2023/10/22 09:48:50;;;;;;;2.65;1.42;;;;;;;;;;4988686;28;20076;-69
2023/10/22 09:51:17;;;;;;;2.45;1.60;;;;;;;;;;4994843;28;20429;-70
2023/10/22 09:53:50;;;;;;;3.88;1.55;;;;;;;;;;4990210;28;20026;-70
2023/10/22 09:56:19;;;;;;;1.70;1.40;;;;;;;;;;4987283;28;20057;-68
2023/10/22 09:58:48;;;;;;;2.77;1.50;;;;;;;;;;4991704;28;20049;-68
2023/10/22 10:01:14;;;;;;;2.10;1.67;;;;;;;;;;4993831;28;20384;-68
2023/10/22 10:03:41;;;;;;;3.92;1.60;;;;;;;;;;4995725;28;20030;-69
2023/10/22 10:06:08;;;;;;;4.47;1.60;;;;;;;;;;4995907;28;20030;-70
2023/10/22 10:08:38;;;;;;;7.00;1.40;;;;;;;;;;4994412;28;20036;-75
2023/10/22 10:11:08;;;;;;;;;;;;;;;;;;4995958;28;20026;-68
2023/10/22 10:13:35;;;;;;;2.03;1.42;;;;;;;;;;4995837;28;19920;-72
2023/10/22 10:16:03;;;;;;;2.30;1.45;;;;;;;;;;4995548;28;20030;-68
2023/10/22 10:19:04;;;;;;;3.60;1.60;;;;;;;;;;4995499;28;20054;-68
2023/10/22 10:21:44;;;;;;;1.70;1.48;;;;;;;;;;4995399;28;20498;-68
2023/10/22 10:24:29;;;;;;;4.20;1.60;;;;;;;;;;4995752;28;20046;-68
2023/10/22 10:26:57;;;;;;;5.20;1.52;;;;;;;;;;4995277;28;20064;-71
2023/10/22 10:29:24;;;;;;;9.18;1.60;;;;;;;;;;4995140;28;20031;-68
2023/10/22 10:31:51;;;;;;;2.20;1.10;;;;;;;;;;4995116;28;20035;-68
2023/10/22 10:34:30;;;;;;;2.67;1.45;;;;;;;;;;4994556;28;20391;-69
2023/10/22 10:36:57;;;;;;;4.25;1.48;;;;;;;;;;4995112;28;20027;-70
2023/10/22 10:39:43;;;;;;;3.22;1.42;;;;;;;;;;4994463;28;20030;-69
2023/10/22 10:42:10;;;;;;;2.33;1.35;;;;;;;;;;4991402;28;20026;-69
2023/10/22 10:44:54;;;;;;;4.28;1.38;;;;;;;;;;4993830;28;20391;-68
2023/10/22 10:47:24;;;;;;;2.75;1.30;;;;;;;;;;4994591;28;20058;-69
2023/10/22 10:50:10;;;;;;;;;;;;;;;;;;4989121;28;20042;-69
2023/10/22 10:52:42;;;;;;;1.98;1.35;;;;;;;;;;4993580;28;20012;-68
2023/10/22 10:55:09;;;;;;;2.42;1.20;;;;;;;;;;4994862;28;20062;-68
2023/10/22 10:57:39;;;;;;;1.45;1.20;;;;;;;;;;4994734;28;20034;-69
2023/10/22 11:00:06;;;;;;;3.42;1.38;;;;;;;;;;4994453;28;20038;-68
2023/10/22 11:02:46;;;;;;;1.13;1.02;;;;;;;;;;4975341;28;20030;-68
2023/10/22 11:05:12;;;;;;;2.93;1.20;;;;;;;;;;4975198;28;20361;-67
2023/10/22 11:07:38;;;;;;;2.83;1.25;;;;;;;;;;4975122;28;20277;-70
2023/10/22 11:10:14;;;;;;;0.93;0.90;;;;;;;;;;4974841;28;20086;-69
2023/10/22 11:12:41;;;;;;;6.80;1.77;;;;;;;;;;4975066;28;20062;-68
2023/10/22 11:15:11;;;;;;;1.10;1.00;;;;;;;;;;4975060;28;20023;-69
2023/10/22 11:17:38;;;;;;;2.97;0.98;;;;;;;;;;4974829;28;20023;-70
2023/10/22 11:20:05;;;;;;;1.17;0.90;;;;;;;;;;4974853;28;20038;-70
2023/10/22 11:22:31;;;;;;;0.75;0.75;;;;;;;;;;4975063;28;20026;-71
2023/10/22 11:25:00;;;;;;;1.42;1.08;;;;;;;;;;4974783;28;20027;-70
2023/10/22 11:27:26;;;;;;;1.27;1.10;;;;;;;;;;4974634;28;20030;-69
2023/10/22 11:29:52;;;;;;;3.08;1.00;;;;;;;;;;4974648;28;20628;-69
2023/10/22 11:32:20;;;;;;;3.75;1.20;;;;;;;;;;4974616;28;20114;-69
2023/10/22 11:34:49;;;;;;;2.75;1.00;;;;;;;;;;4974737;28;20110;-68
2023/10/22 11:37:18;;;;;;;7.57;1.10;;;;;;;;;;4974615;28;20110;-71
2023/10/22 11:39:44;;;;;;;3.33;1.20;;;;;;;;;;4974672;28;20035;-70
2023/10/22 11:42:10;;;;;;;2.35;0.80;;;;;;;;;;4974462;28;20031;-69
2023/10/22 11:44:42;;;;;;;2.13;1.00;;;;;;;;;;4974664;28;20415;-69
2023/10/22 11:47:25;;;;;;;2.97;1.10;;;;;;;;;;4974386;28;20029;-68
2023/10/22 11:49:54;;;;;;;3.45;0.95;;;;;;;;;;4973944;28;20479;-69
2023/10/22 11:52:37;;;;;;;3.03;0.80;;;;;;;;;;4973569;28;20030;-68
2023/10/22 11:55:08;;;;;;;3.58;1.10;;;;;;;;;;4972980;28;20027;-70
2023/10/22 11:57:37;;;;;;;2.15;1.35;;;;;;;;;;4974446;28;20089;-69
2023/10/22 12:00:09;;;;;;;3.08;0.80;;;;;;;;;;4973883;28;20051;-69
2023/10/22 12:02:35;;;;;;;2.47;0.90;;;;;;;;;;4974116;28;20023;-69
2023/10/22 12:05:01;;;;;;;3.42;1.10;;;;;;;;;;4974139;28;20369;-69
2023/10/22 12:07:27;;;;;;;1.60;1.13;;;;;;;;;;4974032;28;20022;-68
2023/10/22 12:09:52;;;;;;;1.23;0.93;;;;;;;;;;4974012;28;20023;-69
2023/10/22 12:12:19;;;;;;;1.65;0.90;;;;;;;;;;4972718;28;20027;-69
2023/10/22 12:14:46;;;;;;;1.38;0.60;;;;;;;;;;4974241;28;20380;-68
2023/10/22 12:17:11;;;;;;;2.83;0.70;;;;;;;;;;4974191;28;20113;-70
2023/10/22 12:19:37;;;;;;;1.38;0.68;;;;;;;;;;4973901;28;20487;-69
2023/10/22 12:22:03;;;;;;;1.10;0.77;;;;;;;;;;4973750;28;20066;-69
2023/10/22 12:24:28;;;;;;;1.65;0.80;;;;;;;;;;4973794;28;20472;-68
2023/10/22 12:26:54;;;;;;;2.17;0.93;;;;;;;;;;4973826;28;20038;-68
2023/10/22 12:29:20;;;;;;;1.38;1.10;;;;;;;;;;4973683;28;20502;-67
2023/10/22 12:31:46;;;;;;;2.25;0.82;;;;;;;;;;4973495;28;20125;-68
2023/10/22 12:34:12;;;;;;;0.60;0.60;;;;;;;;;;4973328;28;20684;-72
2023/10/22 12:36:37;;;;;;;1.38;0.80;;;;;;;;;;4972918;28;20042;-68
2023/10/22 12:39:03;;;;;;;1.95;0.77;;;;;;;;;;4973007;28;20090;-69
2023/10/22 12:41:28;;;;;;;1.50;0.60;;;;;;;;;;4973311;28;20110;-68
2023/10/22 12:43:54;;;;;;;0.80;0.60;;;;;;;;;;4973385;28;20475;-69
2023/10/22 12:46:20;;;;;;;0.55;0.55;;;;;;;;;;4973578;28;20030;-68
2023/10/22 12:48:45;;;;;;;1.15;0.75;;;;;;;;;;4973583;28;20062;-68
2023/10/22 12:51:11;;;;;;;0.68;0.60;;;;;;;;;;4973326;28;20037;-68
2023/10/22 12:53:38;;;;;;;4.18;0.80;;;;;;;;;;4973023;28;20026;-68
2023/10/22 12:56:04;;;;;;;1.20;0.80;;;;;;;;;;4973085;28;20019;-69
2023/10/22 12:58:29;;;;;;;1.83;0.65;;;;;;;;;;4973367;28;20042;-68
2023/10/22 13:00:55;;;;;;;0.70;0.70;;;;;;;;;;4972328;28;20050;-68
2023/10/22 13:03:20;;;;;;;0.50;0.50;;;;;;;;;;4976141;28;20061;-68
2023/10/22 13:05:49;;;;;;;1.15;0.70;;;;;;;;;;4977551;28;20031;-69
2023/10/22 13:08:14;;;;;;;1.55;0.77;;;;;;;;;;4977606;28;20053;-68
2023/10/22 13:10:48;;;;;;;0.57;0.52;;;;;;;;;;4977130;28;20126;-68
2023/10/22 13:13:14;;;;;;;1.88;0.70;;;;;;;;;;4976498;28;20030;-68
2023/10/22 13:15:40;;;;;;;2.45;0.70;;;;;;;;;;4977463;28;20105;-68
2023/10/22 13:18:05;;;;;;;0.65;0.65;;;;;;;;;;4977155;28;20441;-68
2023/10/22 13:20:31;;;;;;;0.95;0.70;;;;;;;;;;4977113;28;20038;-71
2023/10/22 13:22:57;;;;;;;1.52;0.80;;;;;;;;;;4977067;28;20022;-68
2023/10/22 13:25:22;;;;;;;2.30;1.00;;;;;;;;;;4977007;28;20027;-69
2023/10/22 13:27:48;;;;;;;0.85;0.70;;;;;;;;;;4977008;28;20035;-69
2023/10/22 13:30:13;;;;;;;1.02;0.70;;;;;;;;;;4977161;28;20086;-69
2023/10/22 13:32:39;;;;;;;0.55;0.55;;;;;;;;;;4976859;28;20023;-69
2023/10/22 13:35:05;;;;;;;1.70;0.68;;;;;;;;;;4976893;28;20113;-69
2023/10/22 13:37:31;;;;;;;2.13;0.90;;;;;;;;;;4976837;28;20026;-71
2023/10/22 13:39:56;;;;;;;1.48;0.80;;;;;;;;;;4976666;28;20031;-69
2023/10/22 13:42:22;;;;;;;0.95;0.80;;;;;;;;;;4976800;28;20030;-72
2023/10/22 13:44:47;;;;;;;1.15;0.68;;;;;;;;;;4976685;28;20034;-69
2023/10/22 13:47:15;;;;;;;0.98;0.90;;;;;;;;;;4976856;28;20512;-70
2023/10/22 13:49:41;;;;;;;0.60;0.60;;;;;;;;;;4976802;28;20030;-69
2023/10/22 13:52:07;;;;;;;0.95;0.60;;;;;;;;;;4976558;28;20447;-69
2023/10/22 13:54:32;;;;;;;0.68;0.60;;;;;;;;;;4976378;28;20067;-70
2023/10/22 13:56:58;;;;;;;0.90;0.90;;;;;;;;;;4976464;28;20054;-69
2023/10/22 13:59:24;;;;;;;1.05;0.95;;;;;;;;;;4976425;28;20058;-69
2023/10/22 14:01:49;;;;;;;2.30;0.90;;;;;;;;;;4976600;28;20066;-69
2023/10/22 14:04:15;;;;;;;1.20;0.80;;;;;;;;;;4976346;28;20023;-70
2023/10/22 14:06:40;;;;;;;0.60;0.60;;;;;;;;;;4976277;28;20030;-69
2023/10/22 14:09:06;;;;;;;1.00;0.80;;;;;;;;;;4976487;28;20026;-69
2023/10/22 14:11:31;;;;;;;1.48;0.70;;;;;;;;;;4976053;28;20399;-70
2023/10/22 14:13:58;;;;;;;0.60;0.60;;;;;;;;;;4975288;28;20031;-69
2023/10/22 14:16:24;;;;;;;1.85;0.85;;;;;;;;;;4976008;28;20031;-69
2023/10/22 14:18:50;;;;;;;0.60;0.60;;;;;;;;;;4976003;28;20078;-69
2023/10/22 14:21:15;;;;;;;0.85;0.65;;;;;;;;;;4976138;28;20031;-69
2023/10/22 14:23:42;;;;;;;0.60;0.60;;;;;;;;;;4975991;28;20026;-72
2023/10/22 14:26:07;;;;;;;1.30;1.20;;;;;;;;;;4975942;28;20094;-69
2023/10/22 14:28:33;;;;;;;0.77;0.77;;;;;;;;;;4975933;28;20118;-70
2023/10/22 14:31:03;;;;;;;0.75;0.73;;;;;;;;;;4975715;28;20038;-69
2023/10/22 14:33:28;;;;;;;;;;;;;;;;;;4976151;28;20023;-68
2023/10/22 14:36:01;;;;;;;0.80;0.80;;;;;;;;;;4974537;28;20042;-68
2023/10/22 14:38:29;;;;;;;1.20;0.70;;;;;;;;;;4976204;28;20109;-69
2023/10/22 14:40:55;;;;;;;0.70;0.70;;;;;;;;;;4975701;28;20030;-68
2023/10/22 14:43:21;;;;;;;0.68;0.68;;;;;;;;;;4975601;28;20034;-69
2023/10/22 14:45:46;;;;;;;0.95;0.85;;;;;;;;;;4975491;28;20026;-69
2023/10/22 14:48:12;;;;;;;1.80;1.10;;;;;;;;;;4975752;28;20030;-71
2023/10/22 14:50:37;;;;;;;0.70;0.70;;;;;;;;;;4975413;28;20027;-69
2023/10/22 14:53:03;;;;;;;0.70;0.63;;;;;;;;;;4975461;28;20105;-71
2023/10/22 14:55:29;;;;;;;0.70;0.70;;;;;;;;;;4975487;28;20182;-69
2023/10/22 14:57:54;;;;;;;0.93;0.77;;;;;;;;;;4975206;28;20031;-69
2023/10/22 15:00:20;;;;;;;1.42;0.77;;;;;;;;;;4975199;28;20042;-69
2023/10/22 15:02:46;;;;;;;0.90;0.90;;;;;;;;;;4975201;28;20077;-71
2023/10/22 15:05:12;;;;;;;1.80;1.00;;;;;;;;;;4975151;28;20377;-69
2023/10/22 15:07:38;;;;;;;0.80;0.80;;;;;;;;;;4975137;28;20018;-68
2023/10/22 15:10:07;;;;;;;0.68;0.68;;;;;;;;;;4975303;28;20304;-69
2023/10/22 15:12:33;;;;;;;0.60;0.60;;;;;;;;;;4975243;28;20105;-70
2023/10/22 15:14:59;;;;;;;0.80;0.75;;;;;;;;;;4975217;28;20023;-70
2023/10/22 15:17:24;;;;;;;0.80;0.60;;;;;;;;;;4973618;28;20486;-71
2023/10/22 15:19:50;;;;;;;0.88;0.80;;;;;;;;;;4955700;28;20035;-68
2023/10/22 15:22:15;;;;;;;0.80;0.80;;;;;;;;;;4955048;29;20034;-69
2023/10/22 15:24:41;;;;;;;0.77;0.75;;;;;;;;;;4955783;29;20030;-68
2023/10/22 15:27:06;;;;;;;1.80;0.90;;;;;;;;;;4955402;28;20023;-69
2023/10/22 15:29:32;;;;;;;0.80;0.80;;;;;;;;;;4965203;28;20035;-68
2023/10/22 15:31:58;;;;;;;0.90;0.73;;;;;;;;;;4975019;28;20033;-69
2023/10/22 15:34:27;;;;;;;0.90;0.90;;;;;;;;;;4974525;28;20586;-68
2023/10/22 15:36:53;;;;;;;0.95;0.90;;;;;;;;;;4974625;28;20026;-68
2023/10/22 15:39:18;;;;;;;1.17;1.02;;;;;;;;;;4973258;28;20035;-69
2023/10/22 15:41:44;;;;;;;1.50;1.00;;;;;;;;;;4974591;28;20035;-68
2023/10/22 15:44:09;;;;;;;0.70;0.70;;;;;;;;;;4974377;28;20476;-73
2023/10/22 15:46:35;;;;;;;1.48;0.90;;;;;;;;;;4974771;28;20030;-69
2023/10/22 15:49:00;;;;;;;1.08;0.90;;;;;;;;;;4974426;28;20117;-68
2023/10/22 15:51:29;;;;;;;1.27;0.85;;;;;;;;;;4974378;28;20058;-73
2023/10/22 15:53:55;;;;;;;1.08;1.00;;;;;;;;;;4974342;28;20034;-67
2023/10/22 15:56:21;;;;;;;1.40;1.30;;;;;;;;;;4972959;28;20037;-68
2023/10/22 15:58:52;;;;;;;0.98;0.98;;;;;;;;;;4974046;28;20070;-74
2023/10/22 16:01:22;;;;;;;2.17;1.40;;;;;;;;;;4974170;28;20118;-68
2023/10/22 16:03:47;;;;;;;2.97;1.30;;;;;;;;;;4974198;28;20023;-68
2023/10/22 16:06:13;;;;;;;3.05;1.10;;;;;;;;;;4973906;28;20506;-69
2023/10/22 16:08:38;;;;;;;2.28;1.05;;;;;;;;;;4973624;28;20023;-68
2023/10/22 16:11:04;;;;;;;2.25;1.50;;;;;;;;;;4974022;28;20039;-68
2023/10/22 16:13:30;;;;;;;2.90;1.90;;;;;;;;;;4974216;28;20027;-67
2023/10/22 16:15:55;;;;;;;1.55;1.45;;;;;;;;;;4974046;28;20066;-68
2023/10/22 16:18:22;;;;;;;3.10;1.60;;;;;;;;;;4958343;28;20035;-68
2023/10/22 16:20:55;;;;;;;2.03;1.63;;;;;;;;;;4954655;29;20365;-69
2023/10/22 16:23:21;;;;;;;2.70;1.75;;;;;;;;;;4954561;28;20114;-69
2023/10/22 16:25:47;;;;;;;3.30;2.05;;;;;;;;;;4954657;28;20185;-69
2023/10/22 16:28:13;;;;;;;1.85;1.75;;;;;;;;;;4954561;28;20050;-69
2023/10/22 16:30:46;;;;;;;1.98;1.48;;;;;;;;;;4954612;28;20373;-69
2023/10/22 16:33:15;;;;;;;3.10;1.55;;;;;;;;;;4954388;28;20377;-70
2023/10/22 16:35:41;;;;;;;2.38;1.40;;;;;;;;;;4954694;29;20423;-72
2023/10/22 16:38:07;;;;;;;2.28;1.48;;;;;;;;;;4953879;28;20046;-69
2023/10/22 16:40:36;;;;;;;3.85;1.40;;;;;;;;;;4971837;28;20038;-69
2023/10/22 16:43:02;;;;;;;1.33;1.23;;;;;;;;;;4973609;28;20159;-69
2023/10/22 16:45:27;;;;;;;3.75;1.40;;;;;;;;;;4973516;28;20306;-70
2023/10/22 16:47:53;;;;;;;5.55;1.75;;;;;;;;;;4973615;28;20027;-69
2023/10/22 16:50:19;;;;;;;1.50;1.40;;;;;;;;;;4973528;28;20035;-68
2023/10/22 16:52:44;;;;;;;3.42;1.50;;;;;;;;;;4973439;28;20059;-71
2023/10/22 16:55:10;;;;;;;1.52;1.40;;;;;;;;;;4972261;28;20022;-69
2023/10/22 16:57:36;;;;;;;3.65;1.50;;;;;;;;;;4973487;28;20090;-69
2023/10/22 17:00:02;;;;;;;1.52;1.40;;;;;;;;;;4973234;28;20134;-70
2023/10/22 17:02:28;;;;;;;1.38;1.27;;;;;;;;;;4973167;28;20018;-77
2023/10/22 17:04:56;;;;;;;1.40;1.30;;;;;;;;;;4973220;28;20023;-69
2023/10/22 17:07:21;;;;;;;1.58;1.48;;;;;;;;;;4973581;28;20073;-74
2023/10/22 17:09:47;;;;;;;3.72;1.60;;;;;;;;;;4973270;28;20047;-69
2023/10/22 17:12:12;;;;;;;1.35;1.25;;;;;;;;;;4973382;28;20031;-69
2023/10/22 17:14:38;;;;;;;1.30;1.20;;;;;;;;;;4979582;28;20085;-69
2023/10/22 17:17:03;;;;;;;1.70;1.60;;;;;;;;;;4992641;28;20471;-69
2023/10/22 17:19:29;;;;;;;2.78;1.10;;;;;;;;;;4992755;28;20041;-70
2023/10/22 17:21:54;;;;;;;2.65;1.40;;;;;;;;;;4992693;28;20126;-73
2023/10/22 17:24:20;;;;;;;2.35;1.70;;;;;;;;;;4992707;28;20513;-68
2023/10/22 17:26:45;;;;;;;3.35;1.60;;;;;;;;;;4992958;28;20035;-69
2023/10/22 17:29:11;;;;;;;3.10;1.40;;;;;;;;;;4992846;28;20034;-69
2023/10/22 17:31:36;;;;;;;2.75;1.83;;;;;;;;;;4992561;28;20387;-68
2023/10/22 17:34:03;;;;;;;1.85;1.42;;;;;;;;;;4976445;28;20522;-69
2023/10/22 17:36:29;;;;;;;2.25;1.40;;;;;;;;;;4973111;28;20023;-68
2023/10/22 17:38:54;;;;;;;1.40;1.30;;;;;;;;;;4973408;28;20038;-68
2023/10/22 17:41:21;;;;;;;2.03;1.38;;;;;;;;;;4973097;28;20031;-69
2023/10/22 17:43:46;;;;;;;1.90;1.40;;;;;;;;;;4973020;28;20054;-68
2023/10/22 17:46:14;;;;;;;3.40;1.58;;;;;;;;;;4973083;28;20066;-68
2023/10/22 17:48:40;;;;;;;1.58;1.48;;;;;;;;;;4973006;28;20109;-70
2023/10/22 17:51:05;;;;;;;1.88;1.50;;;;;;;;;;4976230;28;20118;-69
2023/10/22 17:53:31;;;;;;;1.67;1.38;;;;;;;;;;4976422;28;20383;-72
2023/10/22 17:56:05;;;;;;;2.70;1.60;;;;;;;;;;4975018;28;20026;-68
2023/10/22 17:58:31;;;;;;;1.90;1.55;;;;;;;;;;4976328;28;20121;-68
2023/10/22 18:00:57;;;;;;;2.10;1.52;;;;;;;;;;4976129;28;20555;-69
2023/10/22 18:03:23;;;;;;;2.45;1.50;;;;;;;;;;4976197;28;20492;-69
2023/10/22 18:05:49;;;;;;;2.30;1.70;;;;;;;;;;4976204;28;20027;-69
2023/10/22 18:08:16;;;;;;;1.58;1.48;;;;;;;;;;4975764;28;20030;-68
2023/10/22 18:10:57;;;;;;;1.63;1.50;;;;;;;;;;4975456;28;20073;-72
2023/10/22 18:13:25;;;;;;;1.50;1.40;;;;;;;;;;4976160;28;20018;-69
2023/10/22 18:15:51;;;;;;;1.98;1.50;;;;;;;;;;4976126;28;20390;-71
2023/10/22 18:18:17;;;;;;;1.75;1.40;;;;;;;;;;4976086;28;20101;-70
2023/10/22 18:20:43;;;;;;;1.65;1.55;;;;;;;;;;4976094;28;20061;-72
2023/10/22 18:23:08;;;;;;;1.73;1.58;;;;;;;;;;4976093;28;20424;-68
2023/10/22 18:25:34;;;;;;;1.60;1.50;;;;;;;;;;4975912;28;20051;-68
2023/10/22 18:27:59;;;;;;;2.65;1.60;;;;;;;;;;4975886;28;20022;-68
2023/10/22 18:30:25;;;;;;;1.40;1.30;;;;;;;;;;4975823;28;20035;-68
2023/10/22 18:32:50;;;;;;;2.08;1.35;;;;;;;;;;4975698;28;20392;-68
2023/10/22 18:35:16;;;;;;;1.65;1.50;;;;;;;;;;4975735;28;20030;-68
2023/10/22 18:37:42;;;;;;;5.18;1.60;;;;;;;;;;4975776;28;20023;-68
2023/10/22 18:40:08;;;;;;;1.92;1.50;;;;;;;;;;4975623;28;20035;-69
2023/10/22 18:42:33;;;;;;;3.47;1.40;;;;;;;;;;4975912;28;20034;-68
2023/10/22 18:44:59;;;;;;;3.35;1.40;;;;;;;;;;4975586;28;20366;-69
2023/10/22 18:47:24;;;;;;;2.25;1.45;;;;;;;;;;4975355;28;20061;-68
2023/10/22 18:49:50;;;;;;;1.50;1.40;;;;;;;;;;4975454;28;20037;-69
2023/10/22 18:52:15;;;;;;;6.43;1.50;;;;;;;;;;4975464;28;20480;-70
2023/10/22 18:54:41;;;;;;;1.95;1.50;;;;;;;;;;4975439;28;20034;-68
2023/10/22 18:57:06;;;;;;;2.75;1.50;;;;;;;;;;4974112;28;20027;-69
2023/10/22 18:59:32;;;;;;;6.10;1.65;;;;;;;;;;4975231;28;20358;-70
2023/10/22 19:01:58;;;;;;;2.47;1.55;;;;;;;;;;4975030;28;20050;-75
2023/10/22 19:04:23;;;;;;;4.05;1.50;;;;;;;;;;4976502;28;20022;-74
2023/10/22 19:06:49;;;;;;;2.05;1.48;;;;;;;;;;4975360;28;20081;-69
2023/10/22 19:09:14;;;;;;;2.53;1.38;;;;;;;;;;4974855;28;20050;-68
2023/10/22 19:11:40;;;;;;;1.52;1.42;;;;;;;;;;4975178;28;20030;-68
2023/10/22 19:14:05;;;;;;;1.95;1.50;;;;;;;;;;4975672;28;20023;-67
2023/10/22 19:16:32;;;;;;;3.45;1.45;;;;;;;;;;4974980;28;20027;-67
2023/10/22 19:18:59;;;;;;;2.70;1.65;;;;;;;;;;4974975;28;20022;-67
2023/10/22 19:21:25;;;;;;;2.65;1.80;;;;;;;;;;4975120;28;20415;-67
2023/10/22 19:23:52;;;;;;;3.75;1.65;;;;;;;;;;4975125;28;20030;-68
2023/10/22 19:26:18;;;;;;;1.55;1.40;;;;;;;;;;4974798;28;20109;-67
2023/10/22 19:28:44;;;;;;;5.88;1.63;;;;;;;;;;4974687;28;20039;-68
2023/10/22 19:31:11;;;;;;;8.40;1.60;;;;;;;;;;4974671;28;20030;-69
2023/10/22 19:33:37;;;;;;;3.30;1.50;;;;;;;;;;4974892;28;20026;-67
2023/10/22 19:36:04;;;;;;;3.25;1.45;;;;;;;;;;4974584;28;20031;-67
2023/10/22 19:38:31;;;;;;;3.13;1.42;;;;;;;;;;4974619;28;20023;-67
2023/10/22 19:40:57;;;;;;;5.35;1.60;;;;;;;;;;4974797;28;20042;-69
2023/10/22 19:43:23;;;;;;;6.28;1.60;;;;;;;;;;4974170;28;20027;-68
2023/10/22 19:45:49;;;;;;;4.78;2.25;;;;;;;;;;4974583;28;20109;-69
2023/10/22 19:48:16;;;;;;;1.92;1.48;;;;;;;;;;4973635;28;20105;-68
2023/10/22 19:50:42;;;;;;;5.03;1.73;;;;;;;;;;4973933;28;20041;-70
2023/10/22 19:53:07;;;;;;;2.67;1.48;;;;;;;;;;4973697;28;20101;-71
2023/10/22 19:55:36;;;;;;;3.42;1.40;;;;;;;;;;4974278;28;20034;-69
2023/10/22 19:58:04;;;;;;;5.82;1.48;;;;;;;;;;4974054;28;20357;-69
2023/10/22 20:00:40;;;;;;;2.88;1.48;;;;;;;;;;4972639;28;20046;-69
2023/10/22 20:03:05;;;;;;;8.18;1.90;;;;;;;;;;4974220;28;20542;-68